createdAt,value
2018-10-17T00:01:50.852Z,5.58
2018-10-17T00:04:20.002Z,5.95
2018-10-17T00:06:49.399Z,5.53
2018-10-17T00:09:18.853Z,5.92
2018-10-17T00:11:48.129Z,5.80
2018-10-17T00:14:17.415Z,5.85
2018-10-17T00:16:47.068Z,5.80
2018-10-17T00:19:17.489Z,5.80
2018-10-17T00:21:46.836Z,5.70
2018-10-17T00:24:16.136Z,5.62
2018-10-17T00:26:45.536Z,6.00
2018-10-17T00:29:15.019Z,5.87
2018-10-17T00:31:44.353Z,6.00
2018-10-17T00:34:13.625Z,5.75
2018-10-17T00:36:42.944Z,5.50
2018-10-17T00:39:12.655Z,5.03
2018-10-17T00:41:42.081Z,5.37
2018-10-17T00:44:11.433Z,5.80
2018-10-17T00:46:40.859Z,5.15
2018-10-17T00:49:10.188Z,5.62
2018-10-17T00:51:39.504Z,5.05
2018-10-17T00:54:08.667Z,5.00
2018-10-17T00:56:37.906Z,5.53
2018-10-17T00:59:09.524Z,5.28
2018-10-17T01:01:39.308Z,5.25
2018-10-17T01:04:09.007Z,5.67
2018-10-17T01:06:38.849Z,5.25
2018-10-17T01:09:10.427Z,5.30
2018-10-17T01:11:40.198Z,5.50
2018-10-17T01:14:10.017Z,5.30
2018-10-17T01:16:39.263Z,5.37
2018-10-17T01:19:08.726Z,5.20
2018-10-17T01:21:38.551Z,5.70
2018-10-17T01:24:07.947Z,5.77
2018-10-17T01:26:37.041Z,5.35
2018-10-17T01:29:06.489Z,4.85
2018-10-17T01:31:35.578Z,5.58
2018-10-17T01:34:05.993Z,5.12
2018-10-17T01:36:35.328Z,5.05
2018-10-17T01:39:06.867Z,5.28
2018-10-17T01:41:36.124Z,5.08
2018-10-17T01:44:05.655Z,4.95
2018-10-17T01:46:35.027Z,4.45
2018-10-17T01:49:04.260Z,5.28
2018-10-17T01:51:33.621Z,5.55
2018-10-17T01:54:02.902Z,5.10
2018-10-17T01:56:32.334Z,5.25
2018-10-17T01:59:01.685Z,5.20
2018-10-17T02:01:31.112Z,5.30
2018-10-17T02:04:00.486Z,5.50
2018-10-17T02:06:29.990Z,5.05
2018-10-17T02:08:59.389Z,4.87
2018-10-17T02:11:28.761Z,5.25
2018-10-17T02:13:58.252Z,5.10
2018-10-17T02:16:27.504Z,5.08
2018-10-17T02:18:56.897Z,4.78
2018-10-17T02:21:26.259Z,4.50
2018-10-17T02:23:55.904Z,4.78
2018-10-17T02:26:25.268Z,5.33
2018-10-17T02:28:54.578Z,5.20
2018-10-17T02:31:23.951Z,4.70
2018-10-17T02:33:53.304Z,4.95
2018-10-17T02:36:22.679Z,4.95
2018-10-17T02:38:51.817Z,4.80
2018-10-17T02:41:21.440Z,4.70
2018-10-17T02:43:50.748Z,5.00
2018-10-17T02:46:20.047Z,4.97
2018-10-17T02:48:49.391Z,4.85
2018-10-17T02:51:18.773Z,4.80
2018-10-17T02:53:48.140Z,5.08
2018-10-17T02:56:17.520Z,5.10
2018-10-17T02:58:46.776Z,4.42
2018-10-17T03:01:16.038Z,5.30
2018-10-17T03:03:45.372Z,4.78
2018-10-17T03:06:15.348Z,4.60
2018-10-17T03:08:44.768Z,4.73
2018-10-17T03:11:14.093Z,4.72
2018-10-17T03:13:43.423Z,5.20
2018-10-17T03:16:12.619Z,4.62
2018-10-17T03:18:42.009Z,4.60
2018-10-17T03:21:11.150Z,4.80
2018-10-17T03:23:40.485Z,4.60
2018-10-17T03:26:09.718Z,4.58
2018-10-17T03:28:38.845Z,4.60
2018-10-17T03:31:08.399Z,4.45
2018-10-17T03:33:37.622Z,4.67
2018-10-17T03:36:06.944Z,4.60
2018-10-17T03:38:36.267Z,4.75
2018-10-17T03:41:05.789Z,4.78
2018-10-17T03:43:35.187Z,4.55
2018-10-17T03:46:04.460Z,4.85
2018-10-17T03:48:33.769Z,4.80
2018-10-17T03:51:03.030Z,4.45
2018-10-17T03:53:32.265Z,4.55
2018-10-17T03:56:01.399Z,4.80
2018-10-17T03:58:30.715Z,4.62
2018-10-17T04:00:59.974Z,4.47
2018-10-17T04:03:29.163Z,4.33
2018-10-17T04:05:58.304Z,4.25
2018-10-17T04:08:27.479Z,4.65
2018-10-17T04:10:56.658Z,4.72
2018-10-17T04:13:25.861Z,4.67
2018-10-17T04:15:55.194Z,4.50
2018-10-17T04:18:24.269Z,4.37
2018-10-17T04:20:53.477Z,4.42
2018-10-17T04:23:22.763Z,4.37
2018-10-17T04:25:52.079Z,4.72
2018-10-17T04:28:21.278Z,4.58
2018-10-17T04:30:50.532Z,4.12
2018-10-17T04:33:19.856Z,4.50
2018-10-17T04:35:49.082Z,4.30
2018-10-17T04:38:18.988Z,4.33
2018-10-17T04:40:48.099Z,4.62
2018-10-17T04:43:17.475Z,4.67
2018-10-17T04:45:46.527Z,4.58
2018-10-17T04:48:15.845Z,4.35
2018-10-17T04:50:45.167Z,4.30
2018-10-17T04:53:14.448Z,4.67
2018-10-17T04:55:43.644Z,4.30
2018-10-17T04:58:12.782Z,4.17
2018-10-17T05:00:41.970Z,4.67
2018-10-17T05:03:11.043Z,4.20
2018-10-17T05:05:40.045Z,4.28
2018-10-17T05:08:09.091Z,4.55
2018-10-17T05:10:38.245Z,4.33
2018-10-17T05:13:07.635Z,4.55
2018-10-17T05:15:36.836Z,4.12
2018-10-17T05:18:06.304Z,4.30
2018-10-17T05:20:35.493Z,4.20
2018-10-17T05:23:05.111Z,4.30
2018-10-17T05:25:34.222Z,4.30
2018-10-17T05:28:03.509Z,4.50
2018-10-17T05:30:32.626Z,4.30
2018-10-17T05:33:02.087Z,4.70
2018-10-17T05:35:31.151Z,4.33
2018-10-17T05:38:00.472Z,4.72
2018-10-17T05:40:29.721Z,4.72
2018-10-17T05:42:58.862Z,4.50
2018-10-17T05:45:34.433Z,4.35
2018-10-17T05:48:03.659Z,5.03
2018-10-17T05:50:32.758Z,5.00
2018-10-17T05:53:02.011Z,5.30
2018-10-17T05:55:30.945Z,5.08
2018-10-17T05:58:00.177Z,5.80
2018-10-17T06:00:29.353Z,6.65
2018-10-17T06:02:58.527Z,19.23
2018-10-17T06:05:27.767Z,19.40
2018-10-17T06:07:57.134Z,18.87
2018-10-17T06:10:26.241Z,19.87
2018-10-17T06:12:55.523Z,15.17
2018-10-17T06:15:24.681Z,14.07
2018-10-17T06:17:53.854Z,13.03
2018-10-17T06:20:23.121Z,13.90
2018-10-17T06:22:52.426Z,14.53
2018-10-17T06:25:21.734Z,13.73
2018-10-17T06:27:50.932Z,15.17
2018-10-17T06:30:20.000Z,14.37
2018-10-17T06:32:49.171Z,15.03
2018-10-17T06:35:18.419Z,13.93
2018-10-17T06:37:47.515Z,12.00
2018-10-17T06:40:17.068Z,11.00
2018-10-17T06:42:46.057Z,10.70
2018-10-17T06:45:15.107Z,11.37
2018-10-17T06:47:44.362Z,12.67
2018-10-17T06:50:13.535Z,13.77
2018-10-17T06:52:42.685Z,14.40
2018-10-17T06:55:11.955Z,13.60
2018-10-17T06:57:40.988Z,15.23
2018-10-17T07:00:11.237Z,14.77
2018-10-17T07:02:40.464Z,14.40
2018-10-17T07:05:10.863Z,14.23
2018-10-17T07:07:41.443Z,14.17
2018-10-17T07:10:10.746Z,13.67
2018-10-17T07:12:39.760Z,13.90
2018-10-17T07:15:09.178Z,13.83
2018-10-17T07:17:38.457Z,14.67
2018-10-17T07:20:09.474Z,14.77
2018-10-17T07:22:39.700Z,14.50
2018-10-17T07:28:34.994Z,13.18
2018-10-17T07:31:06.107Z,13.32
2018-10-17T07:33:36.315Z,12.37
2018-10-17T07:38:54.025Z,11.55
2018-10-17T07:41:24.702Z,10.72
2018-10-17T07:43:55.474Z,11.15
2018-10-17T07:46:26.221Z,11.38
2018-10-17T07:48:56.588Z,10.78
2018-10-17T07:51:27.654Z,12.15
2018-10-17T07:53:57.581Z,12.35
2018-10-17T07:56:28.226Z,12.37
2018-10-17T07:58:58.044Z,12.03
2018-10-17T08:01:28.348Z,12.90
2018-10-17T08:03:57.988Z,12.90
2018-10-17T08:06:27.718Z,11.20
2018-10-17T08:08:57.825Z,11.30
2018-10-17T08:11:27.752Z,10.80
2018-10-17T08:13:57.502Z,12.13
2018-10-17T08:16:27.550Z,12.90
2018-10-17T08:18:57.999Z,11.60
2018-10-17T08:21:28.666Z,11.90
2018-10-17T08:23:59.364Z,11.60
2018-10-17T08:26:29.783Z,12.30
2018-10-17T08:28:59.942Z,12.27
2018-10-17T08:31:30.046Z,11.23
2018-10-17T08:34:00.661Z,11.17
2018-10-17T08:36:30.490Z,12.97
2018-10-17T08:38:59.891Z,12.73
2018-10-17T08:41:29.887Z,12.53
2018-10-17T08:44:01.160Z,10.80
2018-10-17T08:46:30.874Z,12.03
2018-10-17T08:49:00.698Z,12.40
2018-10-17T08:51:30.457Z,12.47
2018-10-17T08:53:59.864Z,12.93
2018-10-17T08:56:29.674Z,12.33
2018-10-17T08:58:59.350Z,12.80
2018-10-17T09:01:29.265Z,12.13
2018-10-17T09:03:58.969Z,12.77
2018-10-17T09:06:29.189Z,13.20
2018-10-17T09:08:58.645Z,12.93
2018-10-17T09:11:28.634Z,12.00
2018-10-17T09:13:58.600Z,12.67
2018-10-17T09:16:28.621Z,12.90
2018-10-17T09:18:58.637Z,12.43
2018-10-17T09:21:28.755Z,11.83
2018-10-17T09:23:58.912Z,13.90
2018-10-17T09:26:28.352Z,12.77
2018-10-17T09:28:57.895Z,11.33
2018-10-17T09:31:27.447Z,11.70
2018-10-17T09:33:56.833Z,11.23
2018-10-17T09:36:27.081Z,10.57
2018-10-17T09:38:59.648Z,10.37
2018-10-17T09:41:29.479Z,9.37
2018-10-17T09:43:59.275Z,10.17
2018-10-17T09:46:28.968Z,9.27
2018-10-17T09:48:58.539Z,9.27
2018-10-17T09:51:28.522Z,8.90
2018-10-17T09:53:58.159Z,9.50
2018-10-17T09:56:28.018Z,10.03
2018-10-17T09:58:57.900Z,8.80
2018-10-17T10:01:31.322Z,9.10
2018-10-17T10:04:00.616Z,8.93
2018-10-17T10:06:30.268Z,9.08
2018-10-17T10:09:00.779Z,8.80
2018-10-17T10:11:31.244Z,9.30
2018-10-17T10:14:01.013Z,9.13
2018-10-17T10:16:31.297Z,9.40
2018-10-17T10:19:00.702Z,8.65
2018-10-17T10:21:30.543Z,9.28
2018-10-17T10:24:00.891Z,8.95
2018-10-17T10:26:30.471Z,9.00
2018-10-17T10:29:01.618Z,8.83
2018-10-17T10:31:31.851Z,8.83
2018-10-17T10:34:01.891Z,8.27
2018-10-17T10:36:32.440Z,8.00
2018-10-17T10:39:02.807Z,7.70
2018-10-17T10:41:32.967Z,8.48
2018-10-17T10:44:02.737Z,8.10
2018-10-17T10:46:32.723Z,8.20
2018-10-17T10:49:02.908Z,8.88
2018-10-17T10:51:32.636Z,8.28
2018-10-17T10:54:01.817Z,8.25
2018-10-17T10:56:31.872Z,7.95
2018-10-17T10:59:01.583Z,8.28
2018-10-17T11:01:31.158Z,8.87
2018-10-17T11:04:00.796Z,8.63
2018-10-17T11:06:30.867Z,8.85
2018-10-17T11:09:00.671Z,8.80
2018-10-17T11:11:30.037Z,9.03
2018-10-17T11:13:59.686Z,9.00
2018-10-17T11:16:29.885Z,8.30
2018-10-17T11:18:59.561Z,9.33
2018-10-17T11:21:29.810Z,8.60
2018-10-17T11:23:59.672Z,8.87
2018-10-17T11:26:30.188Z,8.90
2018-10-17T11:29:00.012Z,8.20
2018-10-17T11:31:36.478Z,8.73
2018-10-17T11:34:06.814Z,8.58
2018-10-17T11:36:36.887Z,8.20
2018-10-17T11:39:08.747Z,8.35
2018-10-17T11:41:38.280Z,8.00
2018-10-17T11:44:07.788Z,8.28
2018-10-17T11:46:37.486Z,8.80
2018-10-17T11:49:07.341Z,9.15
2018-10-17T11:51:37.154Z,8.68
2018-10-17T11:54:07.490Z,9.40
2018-10-17T11:56:37.424Z,8.33
2018-10-17T11:59:07.060Z,8.78
2018-10-17T12:01:36.927Z,9.73
2018-10-17T12:04:06.943Z,9.25
2018-10-17T12:06:36.463Z,10.28
2018-10-17T12:09:09.176Z,9.95
2018-10-17T12:11:39.628Z,10.32
2018-10-17T12:14:09.837Z,11.75
2018-10-17T12:16:39.443Z,10.05
2018-10-17T12:19:09.804Z,11.03
2018-10-17T12:21:39.607Z,10.93
2018-10-17T12:24:09.644Z,11.20
2018-10-17T12:26:39.485Z,10.90
2018-10-17T12:29:09.570Z,11.00
2018-10-17T12:31:40.424Z,11.33
2018-10-17T12:34:10.030Z,10.70
2018-10-17T12:36:39.786Z,10.85
2018-10-17T12:39:13.078Z,11.03
2018-10-17T12:41:43.540Z,10.38
2018-10-17T12:44:13.022Z,10.80
2018-10-17T12:46:42.873Z,9.75
2018-10-17T12:49:13.048Z,9.28
2018-10-17T12:51:42.732Z,9.58
2018-10-17T12:54:12.312Z,9.78
2018-10-17T12:56:41.959Z,9.60
2018-10-17T12:59:11.905Z,9.45
2018-10-17T13:01:41.539Z,8.98
2018-10-17T13:04:11.548Z,9.25
2018-10-17T13:06:40.998Z,9.40
2018-10-17T13:09:12.060Z,9.43
2018-10-17T13:11:42.148Z,9.33
2018-10-17T13:14:12.291Z,8.85
2018-10-17T13:16:42.062Z,8.13
2018-10-17T13:19:12.190Z,8.53
2018-10-17T13:21:41.681Z,8.33
2018-10-17T13:24:11.158Z,8.08
2018-10-17T13:26:40.865Z,8.13
2018-10-17T13:29:10.772Z,8.05
2018-10-17T13:31:40.290Z,7.97
2018-10-17T13:34:09.868Z,7.75
2018-10-17T13:36:39.353Z,7.85
2018-10-17T13:39:10.847Z,7.85
2018-10-17T13:41:40.234Z,7.62
2018-10-17T13:44:10.660Z,8.05
2018-10-17T13:46:40.568Z,8.35
2018-10-17T13:49:10.437Z,8.20
2018-10-17T13:51:39.823Z,8.23
2018-10-17T13:54:09.252Z,8.30
2018-10-17T13:56:38.830Z,7.87
2018-10-17T13:59:09.147Z,8.45
2018-10-17T14:01:38.877Z,7.67
2018-10-17T14:04:08.514Z,8.20
2018-10-17T14:06:39.082Z,8.35
2018-10-17T14:09:10.152Z,7.90
2018-10-17T14:11:39.897Z,8.13
2018-10-17T14:14:09.410Z,7.20
2018-10-17T14:16:39.005Z,7.30
2018-10-17T14:19:08.680Z,7.35
2018-10-17T14:21:37.994Z,7.45
2018-10-17T14:24:07.903Z,7.60
2018-10-17T14:26:37.570Z,7.50
2018-10-17T14:29:08.028Z,7.50
2018-10-17T14:31:37.728Z,7.58
2018-10-17T14:34:07.563Z,7.53
2018-10-17T14:36:37.170Z,8.20
2018-10-17T14:39:09.597Z,7.80
2018-10-17T14:41:39.631Z,7.67
2018-10-17T14:44:09.634Z,7.35
2018-10-17T14:46:39.258Z,7.50
2018-10-17T14:49:09.231Z,7.55
2018-10-17T14:51:39.101Z,7.35
2018-10-17T14:54:08.925Z,7.75
2018-10-17T14:56:38.681Z,7.70
2018-10-17T14:59:08.359Z,7.40
2018-10-17T15:01:37.918Z,7.58
2018-10-17T15:04:08.107Z,7.50
2018-10-17T15:06:37.656Z,7.20
2018-10-17T15:09:09.647Z,7.03
2018-10-17T15:11:40.447Z,7.15
2018-10-17T15:14:09.987Z,6.58
2018-10-17T15:16:39.644Z,7.17
2018-10-17T15:19:09.752Z,6.67
2018-10-17T15:21:40.327Z,6.67
2018-10-17T15:24:10.321Z,6.92
2018-10-17T15:26:40.473Z,7.22
2018-10-17T15:29:10.987Z,7.40
2018-10-17T15:31:41.059Z,6.80
2018-10-17T15:34:11.186Z,8.43
2018-10-17T15:36:41.118Z,7.60
2018-10-17T15:39:12.205Z,9.23
2018-10-17T15:41:42.122Z,11.80
2018-10-17T15:44:12.754Z,12.73
2018-10-17T15:46:42.376Z,11.20
2018-10-17T15:49:12.081Z,12.55
2018-10-17T15:51:41.957Z,12.45
2018-10-17T15:54:11.820Z,16.60
2018-10-17T15:56:41.202Z,10.85
2018-10-17T15:59:11.477Z,14.68
2018-10-17T16:01:41.350Z,15.85
2018-10-17T16:04:11.619Z,13.53
2018-10-17T16:06:41.513Z,14.70
2018-10-17T16:09:12.451Z,15.55
2018-10-17T16:11:42.640Z,19.00
2018-10-17T16:14:12.999Z,21.30
2018-10-17T16:16:42.627Z,19.48
2018-10-17T16:19:12.911Z,18.82
2018-10-17T16:21:42.825Z,18.50
2018-10-17T16:24:14.041Z,21.73
2018-10-17T16:26:43.480Z,20.40
2018-10-17T16:29:13.702Z,17.92
2018-10-17T16:31:54.158Z,17.42
2018-10-17T16:34:23.844Z,15.90
2018-10-17T16:36:53.962Z,16.62
2018-10-17T16:39:23.487Z,13.22
2018-10-17T16:41:53.142Z,11.60
2018-10-17T16:44:22.860Z,10.78
2018-10-17T16:46:52.615Z,9.75
2018-10-17T16:49:22.546Z,9.50
2018-10-17T16:51:52.280Z,9.08
2018-10-17T16:54:22.227Z,9.15
2018-10-17T16:56:52.154Z,8.60
2018-10-17T16:59:21.955Z,8.80
2018-10-17T17:01:51.611Z,8.78
2018-10-17T17:04:21.558Z,8.45
2018-10-17T17:06:50.949Z,8.43
2018-10-17T17:09:20.883Z,8.60
2018-10-17T17:11:50.625Z,8.08
2018-10-17T17:14:20.287Z,8.98
2018-10-17T17:16:49.827Z,8.48
2018-10-17T17:19:19.739Z,8.80
2018-10-17T17:21:49.404Z,8.13
2018-10-17T17:24:18.995Z,8.58
2018-10-17T17:26:48.902Z,9.30
2018-10-17T17:29:19.275Z,8.18
2018-10-17T17:31:49.111Z,8.68
2018-10-17T17:34:18.759Z,9.03
2018-10-17T17:36:49.012Z,7.83
2018-10-17T17:39:19.491Z,8.78
2018-10-17T17:41:49.138Z,8.33
2018-10-17T17:44:19.168Z,8.30
2018-10-17T17:46:49.019Z,8.25
2018-10-17T17:49:19.038Z,7.95
2018-10-17T17:51:49.041Z,7.72
2018-10-17T17:54:18.885Z,7.85
2018-10-17T17:56:48.870Z,8.03
2018-10-17T17:59:18.534Z,7.92
2018-10-17T18:01:48.319Z,7.53
2018-10-17T18:04:17.939Z,7.67
2018-10-17T18:06:48.097Z,7.70
2018-10-17T18:09:17.897Z,7.60
2018-10-17T18:11:48.400Z,8.08
2018-10-17T18:14:17.768Z,7.87
2018-10-17T18:16:47.994Z,8.10
2018-10-17T18:19:17.551Z,7.90
2018-10-17T18:21:47.438Z,7.40
2018-10-17T18:24:16.824Z,8.18
2018-10-17T18:26:46.611Z,7.50
2018-10-17T18:29:16.136Z,8.90
2018-10-17T18:31:46.304Z,7.62
2018-10-17T18:34:16.547Z,8.08
2018-10-17T18:36:46.561Z,8.60
2018-10-17T18:39:16.066Z,8.38
2018-10-17T18:41:45.817Z,7.92
2018-10-17T18:44:15.446Z,8.13
2018-10-17T18:46:44.922Z,8.00
2018-10-17T18:49:14.690Z,8.68
2018-10-17T18:51:44.495Z,7.65
2018-10-17T18:54:14.475Z,7.58
2018-10-17T18:56:43.927Z,7.50
2018-10-17T18:59:13.600Z,7.72
2018-10-17T19:01:43.718Z,7.33
2018-10-17T19:04:13.340Z,7.92
2018-10-17T19:06:43.263Z,7.72
2018-10-17T19:09:14.094Z,7.05
2018-10-17T19:11:43.678Z,7.22
2018-10-17T19:14:13.257Z,7.92
2018-10-17T19:16:43.658Z,8.10
2018-10-17T19:19:13.457Z,7.15
2018-10-17T19:21:43.273Z,7.37
2018-10-17T19:24:13.177Z,7.15
2018-10-17T19:26:42.651Z,6.95
2018-10-17T19:29:12.773Z,7.72
2018-10-17T19:31:42.292Z,7.03
2018-10-17T19:34:11.914Z,7.28
2018-10-17T19:36:42.064Z,8.03
2018-10-17T19:39:14.152Z,8.00
2018-10-17T19:41:44.040Z,7.92
2018-10-17T19:44:13.433Z,8.03
2018-10-17T19:46:43.395Z,8.20
2018-10-17T19:49:12.975Z,8.20
2018-10-17T19:51:42.445Z,8.20
2018-10-17T19:54:12.273Z,7.80
2018-10-17T19:56:41.642Z,7.22
2018-10-17T19:59:11.227Z,8.25
2018-10-17T20:01:41.258Z,7.22
2018-10-17T20:04:11.240Z,7.05
2018-10-17T20:06:41.336Z,7.70
2018-10-17T20:09:12.034Z,7.50
2018-10-17T20:11:41.762Z,7.17
2018-10-17T20:14:11.431Z,7.35
2018-10-17T20:16:41.124Z,7.60
2018-10-17T20:19:10.699Z,7.50
2018-10-17T20:21:40.628Z,7.90
2018-10-17T20:24:10.267Z,7.35
2018-10-17T20:26:39.794Z,7.87
2018-10-17T20:29:09.424Z,8.35
2018-10-17T20:31:39.255Z,7.83
2018-10-17T20:34:08.937Z,6.95
2018-10-17T20:36:38.382Z,7.50
2018-10-17T20:39:14.306Z,7.78
2018-10-17T20:41:44.537Z,7.85
2018-10-17T20:44:14.443Z,8.33
2018-10-17T20:46:44.605Z,7.75
2018-10-17T20:49:14.677Z,7.85
2018-10-17T20:51:45.091Z,7.70
2018-10-17T20:54:14.955Z,7.80
2018-10-17T20:56:45.341Z,7.28
2018-10-17T20:59:14.951Z,7.00
2018-10-17T21:01:44.802Z,7.58
2018-10-17T21:04:14.366Z,6.95
2018-10-17T21:06:43.970Z,7.00
2018-10-17T21:09:14.776Z,7.70
2018-10-17T21:11:44.680Z,8.08
2018-10-17T21:14:14.424Z,7.90
2018-10-17T21:16:44.381Z,8.03
2018-10-17T21:19:14.040Z,7.55
2018-10-17T21:21:43.523Z,7.60
2018-10-17T21:24:13.660Z,7.92
2018-10-17T21:26:43.125Z,7.55
2018-10-17T21:29:14.268Z,7.08
2018-10-17T21:31:44.165Z,6.60
2018-10-17T21:34:13.868Z,8.08
2018-10-17T21:36:43.490Z,7.33
2018-10-17T21:39:14.120Z,6.72
2018-10-17T21:41:44.280Z,7.15
2018-10-17T21:44:14.169Z,7.62
2018-10-17T21:46:43.971Z,7.08
2018-10-17T21:49:13.234Z,6.70
2018-10-17T21:51:42.789Z,7.40
2018-10-17T21:54:12.895Z,7.45
2018-10-17T21:56:42.582Z,6.58
2018-10-17T21:59:12.418Z,6.92
2018-10-17T22:01:42.461Z,6.90
2018-10-17T22:04:11.892Z,6.85
2018-10-17T22:06:41.256Z,7.55
2018-10-17T22:09:11.791Z,6.58
2018-10-17T22:11:41.428Z,7.20
2018-10-17T22:14:11.215Z,6.62
2018-10-17T22:16:46.023Z,7.62
2018-10-17T22:19:15.644Z,6.85
2018-10-17T22:21:45.016Z,7.10
2018-10-17T22:24:14.660Z,6.78
2018-10-17T22:26:44.315Z,6.90
2018-10-17T22:29:14.363Z,5.97
2018-10-17T22:31:43.989Z,6.55
2018-10-17T22:34:13.664Z,6.45
2018-10-17T22:36:44.101Z,6.50
2018-10-17T22:39:15.634Z,6.35
2018-10-17T22:41:46.313Z,6.05
2018-10-17T22:44:16.173Z,6.33
2018-10-17T22:46:45.816Z,6.17
2018-10-17T22:49:15.940Z,6.25
2018-10-17T22:51:45.593Z,6.05
2018-10-17T22:54:15.220Z,6.45
2018-10-17T22:56:45.155Z,6.53
2018-10-17T22:59:14.681Z,6.50
2018-10-17T23:01:44.350Z,6.08
2018-10-17T23:04:14.176Z,6.15
2018-10-17T23:06:44.041Z,5.87
2018-10-17T23:09:14.632Z,6.08
2018-10-17T23:11:45.236Z,6.05
2018-10-17T23:14:14.605Z,5.80
2018-10-17T23:16:44.234Z,5.85
2018-10-17T23:19:13.764Z,5.85
2018-10-17T23:21:43.370Z,6.33
2018-10-17T23:24:12.726Z,6.25
2018-10-17T23:26:42.933Z,6.10
2018-10-17T23:29:12.805Z,6.00
2018-10-17T23:31:42.715Z,5.40
2018-10-17T23:34:12.207Z,5.83
2018-10-17T23:36:42.201Z,5.75
2018-10-17T23:39:11.479Z,5.72
2018-10-17T23:41:41.553Z,5.70
2018-10-17T23:44:11.558Z,5.78
2018-10-17T23:46:40.947Z,5.80
2018-10-17T23:49:10.866Z,5.78
2018-10-17T23:51:40.598Z,5.67
2018-10-17T23:54:10.641Z,5.33
2018-10-17T23:56:40.686Z,5.60
2018-10-17T23:59:10.320Z,5.60
